Time;durP1;ratioP1;P1;durP2;ratioP2;P2;SDS_P1;SDS_P2;PMS_P1;PMS_P2;Temp;Humidity;BMP_temperature;BMP_pressure;BME280_temperature;BME280_humidity;BME280_pressure;Samples;Min_cycle;Max_cycle;Signal;HPM_P1;HPM_P2
2021/07/11 00:00:07;;;;;;;20.12;10.53;;;;;;;18.31;90.50;99551.61;1676095;83;21230;-71
2021/07/11 00:02:34;;;;;;;24.47;12.18;;;;;;;18.27;90.62;99547.95;1679308;84;20948;-71
2021/07/11 00:05:02;;;;;;;28.87;11.22;;;;;;;18.23;90.80;99543.49;1677868;84;21550;-71
2021/07/11 00:07:30;;;;;;;16.48;10.50;;;;;;;18.20;90.92;99545.61;1703158;83;20952;-71
2021/07/11 00:09:57;;;;;;;32.33;12.30;;;;;;;18.15;91.04;99543.35;1701785;83;20945;-71
2021/07/11 00:12:26;;;;;;;24.60;12.73;;;;;;;18.12;91.16;99546.06;1697870;84;21135;-71
2021/07/11 00:14:52;;;;;;;24.10;12.20;;;;;;;18.08;91.28;99540.42;1695024;83;20961;-72
2021/07/11 00:17:21;;;;;;;25.80;12.40;;;;;;;18.07;91.32;99543.57;1703885;83;21015;-71
2021/07/11 00:19:49;;;;;;;18.35;12.03;;;;;;;18.04;91.33;99542.91;1640270;86;21007;-71
2021/07/11 00:22:16;;;;;;;21.37;12.47;;;;;;;18.01;91.50;99546.42;1646066;86;21642;-71
2021/07/11 00:24:44;;;;;;;20.65;12.73;;;;;;;17.99;91.66;99544.00;1645758;86;21162;-71
2021/07/11 00:27:11;;;;;;;21.68;13.00;;;;;;;17.98;91.66;99540.20;1627389;86;20955;-71
2021/07/11 00:29:37;;;;;;;29.82;12.13;;;;;;;17.92;91.47;99538.89;1643481;86;21053;-71
2021/07/11 00:32:05;;;;;;;21.60;12.07;;;;;;;17.89;92.05;99535.48;1647743;86;20997;-71
2021/07/11 00:34:33;;;;;;;21.75;12.98;;;;;;;17.90;92.42;99534.31;1646010;85;21029;-71
2021/07/11 00:37:02;;;;;;;27.30;12.30;;;;;;;17.88;92.29;99533.88;1640048;86;21781;-71
2021/07/11 00:39:29;;;;;;;21.15;11.50;;;;;;;17.84;92.47;99526.86;1645184;85;20905;-71
2021/07/11 00:41:56;;;;;;;18.82;12.88;;;;;;;17.83;92.64;99525.25;1645257;86;21567;-71
2021/07/11 00:44:23;;;;;;;21.85;12.20;;;;;;;17.83;92.89;99531.38;1647874;86;21084;-71
2021/07/11 00:46:49;;;;;;;25.90;12.65;;;;;;;17.81;92.74;99529.77;1640655;86;20933;-71
2021/07/11 00:49:18;;;;;;;18.73;11.95;;;;;;;17.76;92.93;99523.13;1650836;86;21083;-71
2021/07/11 00:51:45;;;;;;;21.65;11.78;;;;;;;17.80;93.50;99527.36;1643405;86;20872;-71
2021/07/11 00:54:14;;;;;;;21.73;12.37;;;;;;;17.81;93.38;99532.55;1647004;86;20951;-71
2021/07/11 00:56:44;;;;;;;15.80;11.05;;;;;;;17.79;93.23;99523.78;1615926;86;20987;-71
2021/07/11 00:59:11;;;;;;;18.05;10.98;;;;;;;17.79;93.53;99521.00;1641791;86;21036;-71
2021/07/11 01:01:46;;;;;;;21.60;11.00;;;;;;;17.81;93.57;99525.61;1646210;85;21182;-71
2021/07/11 01:04:26;;;;;;;22.35;11.57;;;;;;;17.81;93.28;99524.81;1648743;85;20966;-70
2021/07/11 01:06:55;;;;;;;21.05;10.68;;;;;;;17.79;93.25;99529.34;1644994;86;21114;-71
2021/07/11 01:09:30;;;;;;;17.32;10.48;;;;;;;17.81;92.94;99535.33;1641613;86;20968;-71
2021/07/11 01:12:08;;;;;;;19.82;11.15;;;;;;;17.80;92.74;99535.11;1648427;85;20963;-71
2021/07/11 01:14:38;;;;;;;25.62;11.25;;;;;;;17.77;92.47;99541.39;1624144;86;21176;-70
2021/07/11 01:17:06;;;;;;;20.90;11.68;;;;;;;17.73;92.31;99534.95;1639163;86;21418;-70
2021/07/11 01:20:04;;;;;;;19.23;11.12;;;;;;;17.69;92.31;99533.27;1640941;86;21046;-70
2021/07/11 01:22:38;;;;;;;28.45;12.50;;;;;;;17.64;92.12;99534.33;1644050;85;21016;-70
2021/07/11 01:25:08;;;;;;;20.45;12.03;;;;;;;17.57;92.00;99534.75;1681568;84;21535;-70
2021/07/11 01:27:35;;;;;;;22.13;12.28;;;;;;;17.50;92.16;99542.33;1683322;84;21131;-71
2021/07/11 01:30:06;;;;;;;22.10;12.07;;;;;;;17.45;92.28;99537.06;1686273;84;20974;-70
2021/07/11 01:32:34;;;;;;;19.82;11.68;;;;;;;17.43;92.86;99532.45;1690039;83;20904;-71
2021/07/11 01:35:05;;;;;;;23.65;12.23;;;;;;;17.42;92.97;99533.63;1689189;83;20948;-71
2021/07/11 01:37:33;;;;;;;21.97;11.55;;;;;;;17.38;93.09;99538.28;1639133;87;21091;-71
2021/07/11 01:40:01;;;;;;;25.50;14.05;;;;;;;17.40;93.36;99548.44;1621383;87;21021;-70
2021/07/11 01:42:30;;;;;;;26.62;12.68;;;;;;;17.37;93.35;99538.87;1647514;85;21475;-69
2021/07/11 01:44:57;;;;;;;23.18;12.47;;;;;;;17.36;93.83;99540.61;1643923;86;20907;-70
2021/07/11 01:47:24;;;;;;;16.15;11.35;;;;;;;17.39;93.91;99541.28;1644201;86;21453;-70
2021/07/11 01:49:53;;;;;;;25.32;12.95;;;;;;;17.39;93.83;99541.28;1644295;85;21518;-70
2021/07/11 01:52:21;;;;;;;23.15;12.85;;;;;;;17.36;93.77;99537.26;1641237;86;21175;-70
2021/07/11 01:54:48;;;;;;;22.42;11.33;;;;;;;17.36;94.30;99538.64;1646966;86;21591;-70
2021/07/11 01:57:16;;;;;;;25.57;13.38;;;;;;;17.36;94.01;99547.55;1638425;86;21522;-70
2021/07/11 01:59:45;;;;;;;21.65;12.43;;;;;;;17.30;93.91;99551.22;1647931;85;20929;-70
2021/07/11 02:02:16;;;;;;;29.82;13.95;;;;;;;17.27;94.21;99551.13;1641140;86;20969;-70
2021/07/11 02:04:44;;;;;;;32.30;13.95;;;;;;;17.23;94.61;99545.50;1645180;86;21136;-70
2021/07/11 02:07:12;;;;;;;27.73;14.87;;;;;;;17.23;95.07;99553.81;1642411;86;20956;-70
2021/07/11 02:09:38;;;;;;;26.35;13.43;;;;;;;17.22;95.28;99552.79;1645990;86;21040;-70
2021/07/11 02:12:07;;;;;;;28.83;14.30;;;;;;;17.22;95.51;99551.41;1645670;86;21007;-70
2021/07/11 02:14:42;;;;;;;25.45;14.87;;;;;;;17.24;95.75;99550.46;1643867;86;20945;-70
2021/07/11 02:17:16;;;;;;;25.92;13.20;;;;;;;17.24;95.65;99553.23;1642246;84;20990;-70
2021/07/11 02:19:47;;;;;;;26.15;13.75;;;;;;;17.23;95.78;99548.85;1642664;86;21098;-70
2021/07/11 02:22:16;;;;;;;28.00;14.78;;;;;;;17.22;95.96;99550.02;1642440;86;21032;-70
2021/07/11 02:24:44;;;;;;;26.07;14.47;;;;;;;17.20;95.99;99551.77;1645307;86;20966;-70
2021/07/11 02:27:13;;;;;;;20.80;14.35;;;;;;;17.21;96.13;99551.18;1614823;87;21018;-70
2021/07/11 02:29:43;;;;;;;25.17;15.03;;;;;;;17.22;96.25;99550.83;1617245;87;21116;-69
2021/07/11 02:32:09;;;;;;;41.00;15.60;;;;;;;17.24;96.42;99552.66;1618591;86;21012;-70
2021/07/11 02:34:39;;;;;;;24.92;14.47;;;;;;;17.28;96.44;99553.55;1616305;87;22069;-70
2021/07/11 02:37:14;;;;;;;26.77;14.83;;;;;;;17.28;96.46;99557.70;1640085;86;20919;-68
2021/07/11 02:39:43;;;;;;;33.80;15.68;;;;;;;17.30;96.67;99556.77;1642345;85;21112;-70
2021/07/11 02:42:10;;;;;;;30.27;13.85;;;;;;;17.34;97.05;99555.43;1644971;86;21159;-70
2021/07/11 02:44:38;;;;;;;28.15;13.95;;;;;;;17.38;97.03;99554.93;1648017;87;20898;-69
2021/07/11 02:47:18;;;;;;;27.58;14.40;;;;;;;17.41;97.12;99555.02;1649668;86;21595;-69
2021/07/11 02:49:50;;;;;;;28.05;14.78;;;;;;;17.45;97.08;99555.91;1644241;86;21019;-70
2021/07/11 02:52:18;;;;;;;24.85;14.90;;;;;;;17.48;97.08;99559.92;1646964;86;21001;-70
2021/07/11 02:54:49;;;;;;;28.20;13.32;;;;;;;17.53;97.45;99556.88;1640265;86;21195;-70
2021/07/11 02:57:19;;;;;;;33.45;14.68;;;;;;;17.60;97.60;99559.01;1644918;86;21038;-69
2021/07/11 02:59:47;;;;;;;24.87;14.28;;;;;;;17.64;97.37;99559.89;1643110;86;20998;-70
2021/07/11 03:02:15;;;;;;;27.30;14.68;;;;;;;17.68;97.57;99556.64;1642439;86;21473;-69
2021/07/11 03:04:42;;;;;;;26.93;14.73;;;;;;;17.73;97.75;99550.81;1646070;86;21531;-70
2021/07/11 03:07:08;;;;;;;24.27;13.25;;;;;;;17.78;98.17;99544.97;1646950;86;21733;-70
2021/07/11 03:09:41;;;;;;;28.80;13.70;;;;;;;17.84;98.09;99549.07;1648897;86;21136;-71
2021/07/11 03:12:10;;;;;;;;;;;;;;;17.87;98.03;99547.54;1625475;86;21581;-71
2021/07/11 03:14:37;;;;;;;23.45;12.82;;;;;;;17.90;98.22;99550.39;1638716;86;20090;-70
2021/07/11 03:17:07;;;;;;;24.63;15.08;;;;;;;17.95;98.41;99549.27;1644448;86;20998;-70
2021/07/11 03:19:40;;;;;;;20.57;13.28;;;;;;;18.02;98.72;99546.64;1636281;85;20996;-70
2021/07/11 03:22:08;;;;;;;24.02;13.90;;;;;;;18.12;99.08;99551.61;1639416;86;21115;-70
2021/07/11 03:24:36;;;;;;;24.80;13.60;;;;;;;18.21;98.96;99546.64;1653338;86;21285;-69
2021/07/11 03:27:05;;;;;;;23.75;13.30;;;;;;;18.30;98.93;99546.41;1643428;84;21536;-70
2021/07/11 03:30:03;;;;;;;33.98;14.35;;;;;;;18.36;98.92;99541.58;1623351;86;20993;-69
2021/07/11 03:32:37;;;;;;;26.05;15.35;;;;;;;18.46;99.21;99546.55;1640014;86;21469;-70
2021/07/11 03:35:06;;;;;;;26.90;14.98;;;;;;;18.60;99.50;99550.73;1639373;86;21022;-69
2021/07/11 03:37:36;;;;;;;23.62;14.47;;;;;;;18.75;99.68;99546.48;1643565;86;20893;-70
2021/07/11 03:40:03;;;;;;;23.45;14.28;;;;;;;18.91;99.54;99545.56;1658059;86;20965;-70
2021/07/11 03:42:34;;;;;;;21.37;14.20;;;;;;;19.06;99.17;99546.79;1636921;86;21107;-71
2021/07/11 03:45:00;;;;;;;22.17;14.25;;;;;;;19.18;99.17;99550.55;1637314;86;21817;-70
2021/07/11 03:47:41;;;;;;;25.97;15.18;;;;;;;19.29;99.04;99546.76;1634857;87;21036;-70
2021/07/11 03:50:11;;;;;;;23.73;12.95;;;;;;;19.38;98.71;99545.91;1603611;87;20964;-71
2021/07/11 03:52:46;;;;;;;25.43;14.20;;;;;;;19.50;98.50;99550.46;1607388;87;21086;-70
2021/07/11 03:55:12;;;;;;;27.42;13.83;;;;;;;19.59;98.37;99541.28;1616920;87;21066;-70
2021/07/11 03:57:39;;;;;;;19.87;13.78;;;;;;;19.70;98.36;99536.63;1609940;87;21111;-72
2021/07/11 04:00:06;;;;;;;26.07;14.13;;;;;;;19.81;98.23;99545.13;1604067;87;21016;-71
2021/07/11 04:02:34;;;;;;;18.57;13.05;;;;;;;19.91;97.73;99535.31;1620336;87;20980;-70
2021/07/11 04:05:03;;;;;;;22.10;13.13;;;;;;;20.05;97.70;99548.03;1610809;87;21068;-70
2021/07/11 04:07:33;;;;;;;20.75;14.07;;;;;;;20.14;97.65;99540.19;1625622;87;21040;-70
2021/07/11 04:10:00;;;;;;;24.32;14.25;;;;;;;20.23;97.68;99539.27;1615469;87;23265;-70
2021/07/11 04:12:26;;;;;;;23.07;12.88;;;;;;;20.34;98.00;99538.00;1616366;87;21146;-70
2021/07/11 04:14:54;;;;;;;24.45;14.15;;;;;;;20.45;98.01;99540.34;1613735;87;21023;-71
2021/07/11 04:17:22;;;;;;;21.97;12.75;;;;;;;20.59;97.55;99536.91;1661537;84;21050;-70
2021/07/11 04:19:48;;;;;;;22.65;12.07;;;;;;;20.73;97.28;99544.03;1653556;84;21527;-71
2021/07/11 04:22:15;;;;;;;19.57;11.70;;;;;;;20.88;96.72;99548.52;1676657;84;21073;-70
2021/07/11 04:24:43;;;;;;;22.17;9.88;;;;;;;21.03;94.67;99549.45;1681490;84;21538;-71
2021/07/11 04:27:10;;;;;;;13.03;9.63;;;;;;;21.19;92.55;99547.80;1687301;84;20913;-66
2021/07/11 04:29:36;;;;;;;19.02;9.85;;;;;;;21.35;90.21;99550.55;1691580;83;21463;-74
2021/07/11 04:32:05;;;;;;;22.98;10.50;;;;;;;21.51;88.37;99548.83;1615975;87;21538;-75
2021/07/11 04:34:34;;;;;;;22.40;9.23;;;;;;;21.70;86.35;99551.35;1601963;88;21995;-71
2021/07/11 04:37:04;;;;;;;17.45;9.28;;;;;;;21.87;83.97;99554.04;1651167;85;20921;-69
2021/07/11 04:39:31;;;;;;;28.07;8.83;;;;;;;22.06;82.94;99552.94;1585528;87;21003;-69
2021/07/11 04:42:00;;;;;;;13.03;8.40;;;;;;;22.22;83.24;99554.00;1651984;85;20985;-70
2021/07/11 04:44:27;;;;;;;13.68;9.03;;;;;;;22.37;82.37;99551.47;1657161;85;21453;-70
2021/07/11 04:46:55;;;;;;;13.60;8.75;;;;;;;22.50;81.75;99554.70;1657903;85;21166;-70
2021/07/11 04:49:22;;;;;;;18.25;9.08;;;;;;;22.62;81.17;99558.50;1649977;85;20970;-71
2021/07/11 04:51:52;;;;;;;14.78;7.87;;;;;;;22.69;80.26;99555.12;1655819;85;21123;-70
2021/07/11 04:54:19;;;;;;;12.70;8.00;;;;;;;22.75;78.73;99551.33;1649944;85;21497;-70
2021/07/11 04:56:45;;;;;;;13.95;8.28;;;;;;;22.83;77.78;99552.97;1634765;86;21033;-70
2021/07/11 04:59:12;;;;;;;14.18;7.70;;;;;;;22.97;77.33;99554.39;1636886;86;21032;-71
2021/07/11 05:01:39;;;;;;;19.25;7.45;;;;;;;23.10;77.03;99551.20;1675321;84;21477;-70
2021/07/11 05:04:06;;;;;;;11.33;7.40;;;;;;;23.21;76.21;99549.97;1695176;83;21423;-71
2021/07/11 05:06:32;;;;;;;12.28;7.33;;;;;;;23.36;75.40;99549.36;1700823;84;21047;-71
2021/07/11 05:09:00;;;;;;;12.73;7.83;;;;;;;23.50;74.62;99546.55;1694307;84;20924;-70
2021/07/11 05:11:27;;;;;;;14.28;7.37;;;;;;;23.65;74.06;99550.95;1702229;83;21094;-71
2021/07/11 05:13:53;;;;;;;10.70;6.58;;;;;;;23.79;72.54;99551.49;1635433;86;21041;-71
2021/07/11 05:16:21;;;;;;;11.88;7.37;;;;;;;23.94;71.93;99555.05;1625015;87;21011;-70
2021/07/11 05:18:49;;;;;;;11.93;6.65;;;;;;;24.07;71.43;99559.63;1604390;88;21097;-71
2021/07/11 05:21:17;;;;;;;11.45;6.87;;;;;;;24.21;71.40;99561.77;1614053;87;21571;-69
2021/07/11 05:23:43;;;;;;;10.80;6.55;;;;;;;24.38;71.23;99560.09;1608536;86;21933;-71
2021/07/11 05:26:10;;;;;;;14.07;6.22;;;;;;;24.51;70.01;99559.02;1589892;86;21594;-70
2021/07/11 05:28:37;;;;;;;12.28;7.55;;;;;;;24.61;68.98;99563.17;1586519;88;21463;-71
2021/07/11 05:31:04;;;;;;;11.35;7.08;;;;;;;24.73;68.95;99562.51;1615965;87;20965;-72
2021/07/11 05:33:30;;;;;;;15.08;7.37;;;;;;;24.86;68.24;99560.78;1589150;89;21017;-73
2021/07/11 05:35:58;;;;;;;11.55;7.03;;;;;;;25.01;68.61;99561.70;1653942;85;21069;-73
2021/07/11 05:38:24;;;;;;;9.43;6.60;;;;;;;25.13;65.82;99559.62;1649044;87;21564;-74
2021/07/11 05:40:51;;;;;;;11.65;6.42;;;;;;;25.22;65.61;99559.94;1651053;87;21015;-75
2021/07/11 05:43:18;;;;;;;11.73;6.45;;;;;;;25.29;66.55;99564.09;1617654;87;20998;-73
2021/07/11 05:45:44;;;;;;;10.32;7.05;;;;;;;25.37;67.16;99565.64;1592260;88;21696;-72
2021/07/11 05:48:11;;;;;;;19.92;7.53;;;;;;;25.45;67.51;99564.33;1605667;87;21151;-72
2021/07/11 05:50:37;;;;;;;9.80;7.47;;;;;;;25.53;64.86;99562.25;1650815;86;21163;-73
2021/07/11 05:53:04;;;;;;;14.80;6.83;;;;;;;25.60;65.52;99571.41;1640265;87;21071;-72
2021/07/11 05:55:31;;;;;;;10.80;6.72;;;;;;;25.66;65.54;99566.97;1617627;87;21035;-72
2021/07/11 05:57:58;;;;;;;12.55;7.05;;;;;;;25.75;66.37;99565.07;1604860;87;20974;-75
2021/07/11 06:00:24;;;;;;;8.98;6.45;;;;;;;25.81;65.90;99564.80;1604489;88;21170;-74
2021/07/11 06:02:51;;;;;;;9.95;6.47;;;;;;;25.91;65.68;99561.69;1609666;87;21557;-75
2021/07/11 06:05:17;;;;;;;11.18;5.78;;;;;;;25.97;62.94;99562.22;1607401;88;20997;-71
2021/07/11 06:07:45;;;;;;;12.40;6.30;;;;;;;26.04;62.35;99568.34;1652043;86;21006;-72
2021/07/11 06:10:12;;;;;;;8.75;6.30;;;;;;;26.15;64.36;99568.21;1569276;89;21581;-72
2021/07/11 06:12:40;;;;;;;12.47;5.62;;;;;;;26.27;63.19;99571.27;1647312;87;21169;-72
2021/07/11 06:15:09;;;;;;;9.68;5.95;;;;;;;26.36;60.83;99567.98;1613034;87;21090;-71
2021/07/11 06:17:35;;;;;;;8.90;6.05;;;;;;;26.43;60.80;99558.03;1650969;86;21125;-70
2021/07/11 06:20:06;;;;;;;9.55;5.67;;;;;;;26.53;61.14;99560.52;1639909;86;21513;-70
2021/07/11 06:22:33;;;;;;;12.50;5.72;;;;;;;26.63;60.54;99558.94;1644776;85;21441;-70
2021/07/11 06:25:06;;;;;;;13.75;5.87;;;;;;;26.72;60.55;99561.83;1654294;85;21158;-72
2021/07/11 06:27:35;;;;;;;16.85;7.00;;;;;;;26.79;58.31;99560.32;1623840;83;21061;-72
2021/07/11 06:30:06;;;;;;;11.20;5.67;;;;;;;26.85;58.45;99558.63;1650382;85;21089;-71
2021/07/11 06:32:32;;;;;;;8.00;5.58;;;;;;;26.90;57.55;99560.34;1645848;85;20963;-72
2021/07/11 06:34:59;;;;;;;8.18;5.42;;;;;;;26.98;57.56;99561.68;1630890;86;21098;-73
2021/07/11 06:37:26;;;;;;;12.68;5.92;;;;;;;27.06;59.10;99552.69;1636286;85;21787;-71
2021/07/11 06:39:52;;;;;;;13.10;6.20;;;;;;;27.19;59.51;99555.06;1653421;85;20957;-71
2021/07/11 06:42:19;;;;;;;6.30;5.58;;;;;;;27.34;59.26;99549.19;1658568;85;20998;-71
2021/07/11 06:44:45;;;;;;;8.95;5.55;;;;;;;27.47;59.22;99559.42;1642590;86;21517;-72
2021/07/11 06:47:13;;;;;;;51.35;12.73;;;;;;;27.57;59.58;99554.20;1651145;85;21025;-72
2021/07/11 06:49:40;;;;;;;12.70;6.03;;;;;;;27.66;58.30;99544.42;1647925;85;21162;-71
2021/07/11 06:52:07;;;;;;;9.80;5.33;;;;;;;27.75;58.11;99546.02;1646343;85;20946;-71
2021/07/11 06:54:34;;;;;;;48.85;12.80;;;;;;;27.82;55.40;99545.28;1663419;85;21075;-71
2021/07/11 06:57:00;;;;;;;7.83;5.47;;;;;;;27.86;56.33;99549.44;1660868;85;21033;-71
2021/07/11 06:59:27;;;;;;;839.23;222.78;;;;;;;27.91;54.63;99553.17;1654609;85;21078;-71
2021/07/11 07:01:54;;;;;;;92.82;28.25;;;;;;;27.91;55.33;99550.34;1672874;85;21056;-71
2021/07/11 07:04:20;;;;;;;40.38;13.53;;;;;;;27.97;55.50;99550.03;1647384;85;20982;-71
2021/07/11 07:06:49;;;;;;;378.67;85.17;;;;;;;28.04;52.86;99548.47;1653900;85;21061;-71
2021/07/11 07:09:16;;;;;;;17.77;8.45;;;;;;;28.05;54.35;99545.83;1666407;85;21068;-71
2021/07/11 07:11:43;;;;;;;25.75;7.55;;;;;;;28.08;55.34;99542.76;1649260;85;21076;-71
2021/07/11 07:14:10;;;;;;;69.77;16.15;;;;;;;28.11;55.21;99546.92;1650349;85;21457;-71
2021/07/11 07:16:36;;;;;;;18.75;8.50;;;;;;;28.21;54.40;99553.58;1651654;85;21512;-71
2021/07/11 07:19:05;;;;;;;27.15;9.98;;;;;;;28.33;54.57;99554.33;1650008;85;21448;-71
2021/07/11 07:21:33;;;;;;;457.08;88.20;;;;;;;28.45;53.83;99552.87;1651639;85;21545;-71
2021/07/11 07:23:59;;;;;;;30.05;11.65;;;;;;;28.53;53.07;99552.89;1668267;85;21600;-71
2021/07/11 07:26:26;;;;;;;46.85;11.90;;;;;;;28.58;52.22;99559.44;1616568;86;21119;-72
2021/07/11 07:28:52;;;;;;;23.15;8.33;;;;;;;28.65;53.35;99555.04;1609858;86;21560;-71
2021/07/11 07:31:19;;;;;;;10.90;5.72;;;;;;;28.74;52.67;99553.83;1641711;85;20981;-72
2021/07/11 07:33:45;;;;;;;20.60;7.47;;;;;;;28.81;50.17;99552.25;1648291;86;21722;-71
2021/07/11 07:36:12;;;;;;;17.98;7.53;;;;;;;28.82;50.84;99552.45;1633530;87;21568;-71
2021/07/11 07:38:38;;;;;;;12.45;5.72;;;;;;;28.90;50.38;99553.84;1635355;87;21762;-71
2021/07/11 07:41:05;;;;;;;14.93;4.90;;;;;;;29.02;49.52;99550.15;1636438;86;21051;-72
2021/07/11 07:43:31;;;;;;;8.73;4.97;;;;;;;29.13;50.66;99550.69;1630233;87;21551;-69
2021/07/11 07:45:59;;;;;;;14.47;5.22;;;;;;;29.22;49.25;99545.20;1633826;86;20985;-70
2021/07/11 07:48:26;;;;;;;4.50;3.87;;;;;;;29.27;49.18;99546.70;1636361;85;20973;-73
2021/07/11 07:50:55;;;;;;;7.58;4.80;;;;;;;29.31;45.50;99544.59;1629678;86;21066;-72
2021/07/11 07:53:22;;;;;;;4.28;3.67;;;;;;;29.32;46.55;99551.83;1655527;85;20985;-73
2021/07/11 07:55:50;;;;;;;8.20;4.10;;;;;;;29.35;44.67;99546.70;1596717;89;21148;-73
2021/07/11 07:58:16;;;;;;;8.90;4.00;;;;;;;29.42;45.71;99548.76;1604406;88;21110;-70
2021/07/11 08:00:43;;;;;;;7.55;3.58;;;;;;;29.56;44.69;99554.02;1610149;88;21131;-70
2021/07/11 08:03:11;;;;;;;6.30;4.28;;;;;;;29.61;43.28;99544.20;1629866;87;21037;-70
2021/07/11 08:05:39;;;;;;;9.30;4.45;;;;;;;29.65;43.23;99542.06;1612540;87;21091;-75
2021/07/11 08:08:08;;;;;;;6.25;4.08;;;;;;;29.61;44.57;99547.64;1640460;86;20970;-73
2021/07/11 08:10:37;;;;;;;4.17;3.60;;;;;;;29.52;43.78;99550.48;1654169;85;21100;-70
2021/07/11 08:13:04;;;;;;;6.95;4.15;;;;;;;29.35;44.81;99544.67;1655526;85;21094;-73
2021/07/11 08:15:31;;;;;;;5.42;3.58;;;;;;;29.24;44.22;99544.94;1663278;84;21175;-72
2021/07/11 08:17:59;;;;;;;5.42;4.20;;;;;;;29.14;43.61;99538.14;1656285;85;21584;-73
2021/07/11 08:20:27;;;;;;;7.67;3.95;;;;;;;29.12;45.27;99542.03;1656776;85;20934;-74
2021/07/11 08:22:53;;;;;;;6.15;4.17;;;;;;;29.31;45.17;99544.59;1670350;84;21005;-72
2021/07/11 08:25:20;;;;;;;6.90;3.75;;;;;;;29.58;43.67;99542.25;1673283;84;21036;-73
2021/07/11 08:27:47;;;;;;;9.33;3.85;;;;;;;29.85;42.45;99544.76;1661559;84;21175;-75
2021/07/11 08:30:17;;;;;;;7.40;3.90;;;;;;;29.97;42.71;99546.84;1672447;84;21020;-74
2021/07/11 08:32:44;;;;;;;5.05;3.85;;;;;;;30.13;42.76;99537.50;1674663;84;21031;-73
2021/07/11 08:35:12;;;;;;;5.08;3.72;;;;;;;30.40;42.75;99532.86;1671173;84;21168;-74
2021/07/11 08:37:38;;;;;;;14.45;4.60;;;;;;;30.57;42.07;99537.22;1677063;83;21083;-74
2021/07/11 08:40:08;;;;;;;5.22;3.45;;;;;;;30.59;41.24;99533.94;1677264;84;21100;-74
2021/07/11 08:42:35;;;;;;;6.42;3.87;;;;;;;30.73;40.36;99538.50;1670057;85;21054;-75
2021/07/11 08:45:04;;;;;;;4.85;3.95;;;;;;;31.06;40.32;99529.77;1663934;86;21033;-73
2021/07/11 08:47:31;;;;;;;6.90;3.72;;;;;;;31.45;39.20;99527.81;1612412;87;21086;-73
2021/07/11 08:49:57;;;;;;;4.47;3.85;;;;;;;31.88;39.38;99529.13;1579062;89;21038;-73
2021/07/11 08:52:23;;;;;;;26.62;4.85;;;;;;;32.29;36.85;99527.23;1646976;87;23328;-74
2021/07/11 08:54:50;;;;;;;18.73;4.03;;;;;;;32.49;35.60;99529.86;1618973;85;20949;-72
2021/07/11 08:57:16;;;;;;;10.58;3.45;;;;;;;32.73;35.72;99528.70;1622817;86;21664;-71
2021/07/11 08:59:43;;;;;;;6.15;3.15;;;;;;;33.05;34.57;99525.98;1611535;87;21139;-73
2021/07/11 09:02:11;;;;;;;7.05;3.40;;;;;;;33.33;32.20;99521.18;1618223;87;21063;-73
2021/07/11 09:04:44;;;;;;;6.37;3.40;;;;;;;33.37;31.83;99526.09;1583564;88;21072;-74
2021/07/11 09:07:21;;;;;;;6.15;4.20;;;;;;;33.45;31.94;99520.25;1613718;88;20970;-72
2021/07/11 09:09:57;;;;;;;6.70;3.80;;;;;;;33.52;32.27;99525.44;1624467;86;20977;-71
2021/07/11 09:12:25;;;;;;;7.53;3.90;;;;;;;33.21;32.30;99525.55;1629850;86;20937;-72
2021/07/11 09:14:52;;;;;;;8.78;3.55;;;;;;;32.54;33.30;99524.83;1641876;86;21093;-71
2021/07/11 09:17:19;;;;;;;61.42;7.15;;;;;;;31.99;34.72;99515.34;1645167;86;21160;-71
2021/07/11 09:19:48;;;;;;;11.25;4.37;;;;;;;31.93;36.03;99521.45;1618162;87;21547;-72
2021/07/11 09:22:18;;;;;;;9.68;3.92;;;;;;;32.25;35.04;99528.80;1650734;84;21022;-71
2021/07/11 09:24:54;;;;;;;4.97;3.02;;;;;;;32.68;34.44;99520.00;1618537;87;21008;-71
2021/07/11 09:27:24;;;;;;;6.42;4.05;;;;;;;33.07;32.58;99522.67;1621845;87;21429;-71
2021/07/11 09:29:52;;;;;;;4.72;2.90;;;;;;;33.32;31.35;99520.23;1612577;87;21241;-73
2021/07/11 09:32:30;;;;;;;4.65;3.15;;;;;;;33.53;30.85;99518.48;1606921;87;21160;-74
2021/07/11 09:35:16;;;;;;;8.30;3.45;;;;;;;33.57;30.54;99516.28;1617015;87;21002;-73
2021/07/11 09:37:46;;;;;;;6.12;3.42;;;;;;;33.66;31.98;99515.65;1585168;88;21104;-72
2021/07/11 09:40:17;;;;;;;4.42;2.92;;;;;;;33.94;31.78;99512.83;1601558;88;21033;-73
2021/07/11 09:42:46;;;;;;;8.65;3.25;;;;;;;34.05;30.69;99513.13;1588112;87;26183;-73
2021/07/11 09:45:22;;;;;;;9.25;3.60;;;;;;;34.01;32.12;99508.23;1608494;88;21615;-71
2021/07/11 09:47:50;;;;;;;6.30;3.20;;;;;;;34.01;31.81;99516.14;1625297;87;21027;-73
2021/07/11 09:50:21;;;;;;;6.12;3.33;;;;;;;34.08;31.46;99506.48;1599775;87;20979;-74
2021/07/11 09:52:53;;;;;;;6.72;3.72;;;;;;;34.19;32.08;99510.23;1604332;86;21015;-72
2021/07/11 09:55:24;;;;;;;4.87;2.55;;;;;;;34.30;31.18;99517.04;1683044;84;21180;-72
2021/07/11 09:57:54;;;;;;;14.93;6.78;;;;;;;34.30;29.95;99508.49;1676379;85;21688;-72
2021/07/11 10:00:28;;;;;;;5.35;3.10;;;;;;;34.38;31.73;99512.58;1675096;84;21039;-73
2021/07/11 10:03:02;;;;;;;5.37;2.95;;;;;;;34.58;31.03;99510.63;1670339;84;21043;-73
2021/07/11 10:05:28;;;;;;;7.17;3.12;;;;;;;34.74;29.64;99510.20;1676078;84;21087;-70
2021/07/11 10:07:55;;;;;;;4.58;2.90;;;;;;;34.78;30.07;99506.55;1704616;84;21150;-72
2021/07/11 10:10:24;;;;;;;4.42;2.80;;;;;;;34.81;29.55;99506.25;1709463;84;20951;-70
2021/07/11 10:12:53;;;;;;;4.60;3.15;;;;;;;34.83;29.23;99504.34;1701847;83;20960;-70
2021/07/11 10:15:23;;;;;;;6.87;3.60;;;;;;;34.86;28.63;99509.88;1695205;83;20968;-70
2021/07/11 10:17:56;;;;;;;6.85;2.67;;;;;;;34.82;29.73;99509.25;1610321;86;21060;-70
2021/07/11 10:20:37;;;;;;;5.35;2.95;;;;;;;34.74;27.91;99506.56;1598102;88;21012;-70
2021/07/11 10:23:05;;;;;;;4.45;3.27;;;;;;;34.54;29.13;99503.52;1599092;87;21041;-71
2021/07/11 10:25:33;;;;;;;3.80;3.10;;;;;;;34.20;29.57;99501.20;1630651;87;21571;-71
2021/07/11 10:28:11;;;;;;;4.95;3.20;;;;;;;33.98;30.10;99501.43;1620515;87;20982;-72
2021/07/11 10:30:45;;;;;;;5.58;3.98;;;;;;;34.04;30.05;99498.73;1619542;87;20977;-72
2021/07/11 10:33:18;;;;;;;9.40;3.77;;;;;;;34.30;30.03;99502.79;1613945;87;21148;-71
2021/07/11 10:36:03;;;;;;;6.08;3.35;;;;;;;34.42;29.84;99502.44;1622582;87;21557;-72
2021/07/11 10:38:39;;;;;;;4.80;3.00;;;;;;;34.53;31.22;99504.14;1662583;84;21069;-70
2021/07/11 10:41:29;;;;;;;7.78;3.20;;;;;;;34.70;28.48;99508.80;1673792;85;21068;-71
2021/07/11 10:44:23;;;;;;;4.12;2.95;;;;;;;34.64;26.79;99501.57;1668671;85;22153;-71
2021/07/11 10:46:56;;;;;;;6.90;2.80;;;;;;;34.59;27.58;99503.65;1651510;85;21169;-71
2021/07/11 10:49:35;;;;;;;8.73;3.40;;;;;;;34.59;28.13;99502.86;1623870;87;21575;-71
2021/07/11 10:52:08;;;;;;;3.83;3.05;;;;;;;34.70;29.01;99505.31;1637489;87;21057;-71
2021/07/11 10:54:56;;;;;;;6.55;3.25;;;;;;;34.92;29.27;99504.30;1671682;84;21008;-71
2021/07/11 10:57:34;;;;;;;7.12;3.25;;;;;;;35.06;26.82;99504.38;1667399;84;21107;-71
2021/07/11 11:00:13;;;;;;;6.30;3.90;;;;;;;35.08;28.64;99503.89;1672410;84;21710;-71
2021/07/11 11:02:41;;;;;;;6.62;3.20;;;;;;;35.07;30.14;99493.76;1674857;84;20895;-72
2021/07/11 11:05:13;;;;;;;4.85;3.25;;;;;;;35.16;29.49;99503.69;1676544;85;32500;-73
2021/07/11 11:07:54;;;;;;;4.03;3.20;;;;;;;35.19;29.21;99503.35;1675441;85;21430;-71
2021/07/11 11:10:34;;;;;;;5.58;3.40;;;;;;;35.11;28.29;99501.50;1674483;84;20997;-72
2021/07/11 11:13:09;;;;;;;10.93;3.73;;;;;;;35.03;28.87;99496.79;1674711;85;21001;-72
2021/07/11 11:15:41;;;;;;;5.15;3.40;;;;;;;35.13;28.61;99493.88;1668982;84;20921;-72
2021/07/11 11:18:27;;;;;;;5.17;3.05;;;;;;;35.09;28.05;99498.34;1675954;84;21038;-71
2021/07/11 11:20:58;;;;;;;7.65;3.30;;;;;;;35.06;28.59;99496.45;1633005;86;21038;-72
2021/07/11 11:23:26;;;;;;;5.70;3.08;;;;;;;35.06;27.96;99497.87;1619852;87;21176;-73
2021/07/11 11:25:53;;;;;;;3.20;2.90;;;;;;;35.09;27.54;99491.20;1600752;88;21847;-74
2021/07/11 11:28:33;;;;;;;8.10;3.00;;;;;;;35.11;28.22;99492.94;1618723;87;20965;-76
2021/07/11 11:31:23;;;;;;;4.85;2.77;;;;;;;35.18;28.24;99491.16;1612151;87;21406;-77
2021/07/11 11:34:10;;;;;;;14.53;3.10;;;;;;;35.25;28.59;99489.97;1639606;86;21468;-70